Thursday, March 21, 2019, 4:25 PM EDT
Back to Local

KELZ, Wellsville Municipal Airport

Location: Wellsville, NY, United States Lat: 42.1
Local Time: 4:25 PM EDT (20:25 GMT) Lon: -78
Time Zone: US/Eastern Elev: 2122 ft

Show me the last for .
Show Decoded

2019-03-21 14:56 METAR KELZ 211856Z AUTO 14009KT 10SM BKN023 OVC090 07/03 A2983 RMK AO2 SLP114
                 T00720028 =
2019-03-21 13:56 METAR KELZ 211756Z AUTO 16007KT 10SM CLR 07/01 A2986 RMK AO2 SLP123 T00720011
                 10078 20017 58025 =
2019-03-21 12:56 METAR KELZ 211656Z AUTO 16009G17KT 10SM BKN090 07/00 A2989 RMK AO2 SLP133
                 T00670000 =
2019-03-21 11:56 METAR KELZ 211556Z AUTO 18008KT 10SM BKN080 OVC090 06/M01 A2992 RMK AO2 SLP144
                 T00611011 =
2019-03-21 10:56 METAR KELZ 211456Z AUTO 16005KT 10SM SCT060 OVC075 05/M01 A2994 RMK AO2 SLP151
                 T00501011 58007 =
2019-03-21 09:56 METAR KELZ 211356Z AUTO 15006KT 10SM OVC070 03/M02 A2995 RMK AO2 SLP158
                 T00281017 =
2019-03-21 08:56 METAR KELZ 211256Z AUTO 15008G16KT 10SM OVC090 02/M02 A2996 RMK AO2 SLP160
                 T00171022 =
2019-03-21 07:56 METAR KELZ 211156Z AUTO 13007KT 10SM BKN095 BKN120 02/M04 A2996 RMK AO2 SLP160
                 T00171039 10033 20017 58012 =
2019-03-21 06:56 METAR KELZ 211056Z AUTO 13004KT 10SM OVC090 02/M04 A2997 RMK AO2 SLP162
                 T00171044 $ =
2019-03-21 05:56 METAR KELZ 210956Z AUTO 11003KT 10SM OVC070 02/M06 A2999 RMK AO2 SLP169
                 T00171056 $ =
2019-03-21 04:56 METAR KELZ 210856Z AUTO 13003KT 10SM OVC070 02/M06 A3000 RMK AO2 SLP171
                 T00171061 58013 $ =
2019-03-21 03:56 METAR KELZ 210756Z AUTO 16004KT 10SM BKN075 OVC090 03/M07 A3001 RMK AO2 SLP174
                 T00281067 $ =
2019-03-21 02:56 METAR KELZ 210656Z AUTO 18008KT 150V210 10SM OVC075 03/M07 A3003 RMK AO2 SLP181
                 T00281067 $ =
2019-03-21 01:56 METAR KELZ 210556Z AUTO 18009KT 10SM OVC075 03/M07 A3003 RMK AO2 SLP183
                 T00331067 10061 20033 56012 $ =
2019-03-21 00:56 METAR KELZ 210456Z AUTO 18007G18KT 10SM OVC095 04/M07 A3004 RMK AO2 SLP186
                 T00391067 400891056 $ =
2019-03-20 23:56 METAR KELZ 210356Z AUTO 16008G18KT 10SM OVC080 04/M07 A3006 RMK AO2 SLP192
                 T00391067 $ =
2019-03-20 22:56 METAR KELZ 210256Z AUTO 17010KT 10SM BKN100 04/M07 A3007 RMK AO2 SLP198
                 T00441072 56003 $ =
2019-03-20 21:56 METAR KELZ 210156Z AUTO 17009G17KT 10SM FEW100 05/M07 A3008 RMK AO2 SLP202
                 T00501072 $ =
2019-03-20 20:56 METAR KELZ 210056Z AUTO 16010KT 10SM BKN100 06/M08 A3007 RMK AO2 SLP201
                 T00561078 $ =
2019-03-20 19:56 METAR KELZ 202356Z AUTO 16007KT 10SM FEW120 06/M08 A3008 RMK AO2 SLP205
                 T00611083 10089 20061 56005 $ =
2019-03-20 18:56 METAR KELZ 202256Z AUTO 17008KT 10SM CLR 07/M08 A3008 RMK AO2 SLP206 T00671083 $
                 =
2019-03-20 17:56 METAR KELZ 202156Z AUTO 19008G15KT 10SM BKN090 08/M09 A3009 RMK AO2 SLP209
                 T00781094 $ =
2019-03-20 16:56 METAR KELZ 202056Z AUTO 20008KT 10SM FEW095 08/M09 A3010 RMK AO2 SLP211
                 T00831094 56023 $ =

Support USWX by starting your Amazon purchase here.